sensor_id;sensor_type;location;lat;lon;timestamp;pressure;altitude;pressure_sealevel;temperature;humidity
6829;BME280;17930;48.592;8.868;2023-03-14T00:01:22;95214.66;;;9.23;100.00
6829;BME280;17930;48.592;8.868;2023-03-14T00:03:50;95207.34;;;9.25;100.00
6829;BME280;17930;48.592;8.868;2023-03-14T00:06:17;95210.41;;;9.27;100.00
6829;BME280;17930;48.592;8.868;2023-03-14T00:08:44;95212.72;;;9.29;100.00
6829;BME280;17930;48.592;8.868;2023-03-14T00:11:13;95193.09;;;9.23;100.00
6829;BME280;17930;48.592;8.868;2023-03-14T00:13:40;95201.34;;;9.25;100.00
6829;BME280;17930;48.592;8.868;2023-03-14T00:16:11;95173.97;;;9.27;100.00
6829;BME280;17930;48.592;8.868;2023-03-14T00:18:38;95188.22;;;9.30;100.00
6829;BME280;17930;48.592;8.868;2023-03-14T00:21:07;95171.25;;;9.32;100.00
6829;BME280;17930;48.592;8.868;2023-03-14T00:23:35;95175.66;;;9.23;100.00
6829;BME280;17930;48.592;8.868;2023-03-14T00:26:04;95179.19;;;9.27;100.00
6829;BME280;17930;48.592;8.868;2023-03-14T00:28:31;95185.16;;;9.28;100.00
6829;BME280;17930;48.592;8.868;2023-03-14T00:30:58;95187.91;;;9.23;100.00
6829;BME280;17930;48.592;8.868;2023-03-14T00:33:26;95190.19;;;9.24;100.00
6829;BME280;17930;48.592;8.868;2023-03-14T00:35:54;95190.03;;;9.21;100.00
6829;BME280;17930;48.592;8.868;2023-03-14T00:38:21;95189.00;;;9.30;100.00
6829;BME280;17930;48.592;8.868;2023-03-14T00:40:47;95190.88;;;9.38;100.00
6829;BME280;17930;48.592;8.868;2023-03-14T00:43:14;95197.59;;;9.39;100.00
6829;BME280;17930;48.592;8.868;2023-03-14T00:45:40;95204.59;;;9.30;100.00
6829;BME280;17930;48.592;8.868;2023-03-14T00:48:07;95205.97;;;9.28;100.00
6829;BME280;17930;48.592;8.868;2023-03-14T00:50:35;95209.47;;;9.23;100.00
6829;BME280;17930;48.592;8.868;2023-03-14T00:53:02;95220.69;;;9.32;100.00
6829;BME280;17930;48.592;8.868;2023-03-14T00:55:28;95220.50;;;9.29;100.00
6829;BME280;17930;48.592;8.868;2023-03-14T00:57:55;95219.16;;;9.31;100.00
6829;BME280;17930;48.592;8.868;2023-03-14T01:00:22;95230.00;;;9.33;100.00
6829;BME280;17930;48.592;8.868;2023-03-14T01:02:48;95225.75;;;9.37;100.00
6829;BME280;17930;48.592;8.868;2023-03-14T01:05:15;95213.53;;;9.46;100.00
6829;BME280;17930;48.592;8.868;2023-03-14T01:07:43;95212.34;;;9.52;100.00
6829;BME280;17930;48.592;8.868;2023-03-14T01:10:10;95205.75;;;9.55;100.00
6829;BME280;17930;48.592;8.868;2023-03-14T01:12:37;95199.66;;;9.59;100.00
6829;BME280;17930;48.592;8.868;2023-03-14T01:15:04;95186.63;;;9.59;100.00
6829;BME280;17930;48.592;8.868;2023-03-14T01:17:31;95180.34;;;9.60;100.00
6829;BME280;17930;48.592;8.868;2023-03-14T01:19:58;95183.72;;;9.61;100.00
6829;BME280;17930;48.592;8.868;2023-03-14T01:22:25;95188.00;;;9.57;100.00
6829;BME280;17930;48.592;8.868;2023-03-14T01:24:53;95180.00;;;9.53;100.00
6829;BME280;17930;48.592;8.868;2023-03-14T01:27:20;95172.19;;;9.45;100.00
6829;BME280;17930;48.592;8.868;2023-03-14T01:29:47;95165.63;;;9.47;100.00
6829;BME280;17930;48.592;8.868;2023-03-14T01:32:13;95158.28;;;9.41;100.00
6829;BME280;17930;48.592;8.868;2023-03-14T01:34:43;95149.06;;;9.35;100.00
6829;BME280;17930;48.592;8.868;2023-03-14T01:37:10;95133.31;;;9.31;100.00
6829;BME280;17930;48.592;8.868;2023-03-14T01:39:37;95125.19;;;9.33;100.00
6829;BME280;17930;48.592;8.868;2023-03-14T01:42:05;95118.91;;;9.25;100.00
6829;BME280;17930;48.592;8.868;2023-03-14T01:44:47;95118.31;;;9.28;100.00
6829;BME280;17930;48.592;8.868;2023-03-14T01:47:14;95110.94;;;9.30;100.00
6829;BME280;17930;48.592;8.868;2023-03-14T01:49:45;95119.34;;;9.27;100.00
6829;BME280;17930;48.592;8.868;2023-03-14T01:52:15;95113.84;;;9.20;100.00
6829;BME280;17930;48.592;8.868;2023-03-14T01:54:47;95109.88;;;9.23;100.00
6829;BME280;17930;48.592;8.868;2023-03-14T01:57:20;95114.00;;;9.24;100.00
6829;BME280;17930;48.592;8.868;2023-03-14T01:59:52;95113.22;;;9.23;100.00
6829;BME280;17930;48.592;8.868;2023-03-14T02:02:22;95115.81;;;9.23;100.00
6829;BME280;17930;48.592;8.868;2023-03-14T02:04:51;95121.63;;;9.20;100.00
6829;BME280;17930;48.592;8.868;2023-03-14T02:07:20;95117.06;;;9.26;100.00
6829;BME280;17930;48.592;8.868;2023-03-14T02:09:48;95121.63;;;9.20;100.00
6829;BME280;17930;48.592;8.868;2023-03-14T02:12:17;95111.56;;;9.27;100.00
6829;BME280;17930;48.592;8.868;2023-03-14T02:14:44;95108.50;;;9.25;100.00
6829;BME280;17930;48.592;8.868;2023-03-14T02:17:14;95104.66;;;9.23;100.00
6829;BME280;17930;48.592;8.868;2023-03-14T02:20:04;95097.16;;;9.21;100.00
6829;BME280;17930;48.592;8.868;2023-03-14T02:22:34;95092.91;;;9.25;100.00
6829;BME280;17930;48.592;8.868;2023-03-14T02:25:06;95093.34;;;9.27;100.00
6829;BME280;17930;48.592;8.868;2023-03-14T02:27:36;95089.06;;;9.23;100.00
6829;BME280;17930;48.592;8.868;2023-03-14T02:30:05;95099.91;;;9.17;100.00
6829;BME280;17930;48.592;8.868;2023-03-14T02:32:37;95090.09;;;9.14;100.00
6829;BME280;17930;48.592;8.868;2023-03-14T02:35:08;95091.19;;;9.13;100.00
6829;BME280;17930;48.592;8.868;2023-03-14T02:37:39;95075.72;;;9.16;100.00
6829;BME280;17930;48.592;8.868;2023-03-14T02:40:08;95078.63;;;9.15;100.00
6829;BME280;17930;48.592;8.868;2023-03-14T02:42:37;95071.16;;;9.21;100.00
6829;BME280;17930;48.592;8.868;2023-03-14T02:45:36;95068.53;;;9.13;100.00
6829;BME280;17930;48.592;8.868;2023-03-14T02:48:07;95061.03;;;9.12;100.00
6829;BME280;17930;48.592;8.868;2023-03-14T02:50:35;95056.44;;;9.09;100.00
6829;BME280;17930;48.592;8.868;2023-03-14T02:53:02;95038.06;;;8.97;100.00
6829;BME280;17930;48.592;8.868;2023-03-14T02:55:28;95038.06;;;8.97;100.00
6829;BME280;17930;48.592;8.868;2023-03-14T02:57:56;95046.00;;;8.92;100.00
6829;BME280;17930;48.592;8.868;2023-03-14T03:00:23;95043.88;;;8.94;100.00
6829;BME280;17930;48.592;8.868;2023-03-14T03:02:50;95049.06;;;8.94;100.00
6829;BME280;17930;48.592;8.868;2023-03-14T03:05:17;95026.28;;;8.91;100.00
6829;BME280;17930;48.592;8.868;2023-03-14T03:07:44;95020.31;;;8.82;100.00
6829;BME280;17930;48.592;8.868;2023-03-14T03:10:11;95016.34;;;8.93;100.00
6829;BME280;17930;48.592;8.868;2023-03-14T03:12:38;95010.22;;;8.89;100.00
6829;BME280;17930;48.592;8.868;2023-03-14T03:15:06;95015.84;;;8.82;100.00
6829;BME280;17930;48.592;8.868;2023-03-14T03:17:33;95012.34;;;8.87;100.00
6829;BME280;17930;48.592;8.868;2023-03-14T03:20:00;95008.88;;;9.00;100.00
6829;BME280;17930;48.592;8.868;2023-03-14T03:22:26;95000.75;;;8.93;100.00
6829;BME280;17930;48.592;8.868;2023-03-14T03:24:53;94987.88;;;8.88;100.00
6829;BME280;17930;48.592;8.868;2023-03-14T03:27:20;94986.34;;;8.87;100.00
6829;BME280;17930;48.592;8.868;2023-03-14T03:29:46;94981.16;;;8.87;100.00
6829;BME280;17930;48.592;8.868;2023-03-14T03:32:15;94985.44;;;8.83;100.00
6829;BME280;17930;48.592;8.868;2023-03-14T03:34:41;94984.97;;;8.81;100.00
6829;BME280;17930;48.592;8.868;2023-03-14T03:37:08;94972.59;;;8.78;100.00
6829;BME280;17930;48.592;8.868;2023-03-14T03:39:35;94969.06;;;8.82;100.00
6829;BME280;17930;48.592;8.868;2023-03-14T03:42:01;94973.22;;;8.83;100.00
6829;BME280;17930;48.592;8.868;2023-03-14T03:44:28;94973.19;;;8.75;100.00
6829;BME280;17930;48.592;8.868;2023-03-14T03:46:54;94960.50;;;8.65;100.00
6829;BME280;17930;48.592;8.868;2023-03-14T03:49:22;94973.03;;;8.71;100.00
6829;BME280;17930;48.592;8.868;2023-03-14T03:51:49;94971.84;;;8.77;100.00
6829;BME280;17930;48.592;8.868;2023-03-14T03:54:15;94971.34;;;8.67;100.00
6829;BME280;17930;48.592;8.868;2023-03-14T03:56:42;94976.72;;;8.70;100.00
6829;BME280;17930;48.592;8.868;2023-03-14T03:59:09;94963.56;;;8.75;100.00
6829;BME280;17930;48.592;8.868;2023-03-14T04:01:35;94961.75;;;8.76;100.00
6829;BME280;17930;48.592;8.868;2023-03-14T04:04:02;94961.13;;;8.79;100.00
6829;BME280;17930;48.592;8.868;2023-03-14T04:06:30;94961.56;;;8.81;100.00
6829;BME280;17930;48.592;8.868;2023-03-14T04:08:57;94959.28;;;8.71;100.00
6829;BME280;17930;48.592;8.868;2023-03-14T04:11:24;94960.31;;;8.70;100.00
6829;BME280;17930;48.592;8.868;2023-03-14T04:13:50;94970.25;;;8.60;100.00
6829;BME280;17930;48.592;8.868;2023-03-14T04:16:19;94973.00;;;8.55;100.00
6829;BME280;17930;48.592;8.868;2023-03-14T04:18:46;94958.31;;;8.59;100.00
6829;BME280;17930;48.592;8.868;2023-03-14T04:21:12;94965.81;;;8.60;100.00
6829;BME280;17930;48.592;8.868;2023-03-14T04:23:40;94962.75;;;8.58;100.00
6829;BME280;17930;48.592;8.868;2023-03-14T04:26:07;94954.53;;;8.56;100.00
6829;BME280;17930;48.592;8.868;2023-03-14T04:28:34;94951.75;;;8.61;100.00
6829;BME280;17930;48.592;8.868;2023-03-14T04:31:06;94943.34;;;8.64;100.00
6829;BME280;17930;48.592;8.868;2023-03-14T04:33:33;94938.94;;;8.56;100.00
6829;BME280;17930;48.592;8.868;2023-03-14T04:36:00;94925.78;;;8.61;100.00
6829;BME280;17930;48.592;8.868;2023-03-14T04:38:26;94927.16;;;8.59;100.00
6829;BME280;17930;48.592;8.868;2023-03-14T04:40:54;94933.56;;;8.53;100.00
6829;BME280;17930;48.592;8.868;2023-03-14T04:43:21;94931.25;;;8.51;100.00
6829;BME280;17930;48.592;8.868;2023-03-14T04:45:48;94923.16;;;8.53;100.00
6829;BME280;17930;48.592;8.868;2023-03-14T04:48:14;94929.59;;;8.55;100.00
6829;BME280;17930;48.592;8.868;2023-03-14T04:50:41;94923.03;;;8.49;100.00
6829;BME280;17930;48.592;8.868;2023-03-14T04:53:08;94923.91;;;8.36;100.00
6829;BME280;17930;48.592;8.868;2023-03-14T04:55:34;94906.78;;;8.35;100.00
6829;BME280;17930;48.592;8.868;2023-03-14T04:58:02;94913.03;;;8.34;100.00
6829;BME280;17930;48.592;8.868;2023-03-14T05:00:29;94902.53;;;8.39;100.00
6829;BME280;17930;48.592;8.868;2023-03-14T05:02:56;94902.53;;;8.39;100.00
6829;BME280;17930;48.592;8.868;2023-03-14T05:05:23;94891.84;;;8.49;100.00
6829;BME280;17930;48.592;8.868;2023-03-14T05:07:50;94883.88;;;8.54;100.00
6829;BME280;17930;48.592;8.868;2023-03-14T05:10:17;94875.16;;;8.50;100.00
6829;BME280;17930;48.592;8.868;2023-03-14T05:12:43;94871.81;;;8.50;100.00
6829;BME280;17930;48.592;8.868;2023-03-14T05:15:11;94877.19;;;8.53;100.00
6829;BME280;17930;48.592;8.868;2023-03-14T05:17:38;94862.97;;;8.59;100.00
6829;BME280;17930;48.592;8.868;2023-03-14T05:20:05;94876.88;;;8.63;100.00
6829;BME280;17930;48.592;8.868;2023-03-14T05:22:34;94865.28;;;8.69;100.00
6829;BME280;17930;48.592;8.868;2023-03-14T05:25:00;94866.03;;;8.78;100.00
6829;BME280;17930;48.592;8.868;2023-03-14T05:27:27;94853.66;;;8.75;100.00
6829;BME280;17930;48.592;8.868;2023-03-14T05:29:54;94857.91;;;8.71;100.00
6829;BME280;17930;48.592;8.868;2023-03-14T05:32:21;94856.84;;;8.64;100.00
6829;BME280;17930;48.592;8.868;2023-03-14T05:34:48;94853.50;;;8.71;100.00
6829;BME280;17930;48.592;8.868;2023-03-14T05:37:15;94847.38;;;8.68;100.00
6829;BME280;17930;48.592;8.868;2023-03-14T05:39:41;94854.56;;;8.62;100.00
6829;BME280;17930;48.592;8.868;2023-03-14T05:42:08;94853.34;;;8.68;100.00
6829;BME280;17930;48.592;8.868;2023-03-14T05:44:34;94851.50;;;8.68;100.00
6829;BME280;17930;48.592;8.868;2023-03-14T05:47:01;94848.75;;;8.65;100.00
6829;BME280;17930;48.592;8.868;2023-03-14T05:49:29;94828.88;;;8.61;100.00
6829;BME280;17930;48.592;8.868;2023-03-14T05:51:56;94831.63;;;8.64;100.00
6829;BME280;17930;48.592;8.868;2023-03-14T05:54:22;94828.59;;;8.62;100.00
6829;BME280;17930;48.592;8.868;2023-03-14T05:56:49;94822.91;;;8.60;100.00
6829;BME280;17930;48.592;8.868;2023-03-14T05:59:16;94828.72;;;8.57;100.00
6829;BME280;17930;48.592;8.868;2023-03-14T06:01:42;94825.06;;;8.58;100.00
6829;BME280;17930;48.592;8.868;2023-03-14T06:04:09;94826.91;;;8.66;100.00
6829;BME280;17930;48.592;8.868;2023-03-14T06:06:37;94837.00;;;8.68;100.00
6829;BME280;17930;48.592;8.868;2023-03-14T06:09:04;94836.19;;;8.84;100.00
6829;BME280;17930;48.592;8.868;2023-03-14T06:11:30;94827.19;;;8.90;100.00
6829;BME280;17930;48.592;8.868;2023-03-14T06:13:57;94847.69;;;8.91;100.00
6829;BME280;17930;48.592;8.868;2023-03-14T06:16:23;94845.09;;;8.83;100.00
6829;BME280;17930;48.592;8.868;2023-03-14T06:18:50;94847.81;;;8.95;100.00
6829;BME280;17930;48.592;8.868;2023-03-14T06:21:18;94851.78;;;9.01;100.00
6829;BME280;17930;48.592;8.868;2023-03-14T06:23:46;94836.78;;;9.15;100.00
6829;BME280;17930;48.592;8.868;2023-03-14T06:26:12;94838.28;;;9.32;100.00
6829;BME280;17930;48.592;8.868;2023-03-14T06:28:39;94829.09;;;9.26;100.00
6829;BME280;17930;48.592;8.868;2023-03-14T06:31:06;94827.91;;;9.24;100.00
6829;BME280;17930;48.592;8.868;2023-03-14T06:33:32;94828.66;;;9.24;100.00
6829;BME280;17930;48.592;8.868;2023-03-14T06:35:59;94827.13;;;9.23;100.00
6829;BME280;17930;48.592;8.868;2023-03-14T06:38:26;94821.31;;;9.18;100.00
6829;BME280;17930;48.592;8.868;2023-03-14T06:40:54;94814.59;;;9.25;100.00
6829;BME280;17930;48.592;8.868;2023-03-14T06:43:20;94821.59;;;9.33;100.00
6829;BME280;17930;48.592;8.868;2023-03-14T06:45:47;94826.78;;;9.33;100.00
6829;BME280;17930;48.592;8.868;2023-03-14T06:48:14;94834.59;;;9.33;100.00
6829;BME280;17930;48.592;8.868;2023-03-14T06:50:41;94830.28;;;9.37;100.00
6829;BME280;17930;48.592;8.868;2023-03-14T06:53:08;94831.34;;;9.45;100.00
6829;BME280;17930;48.592;8.868;2023-03-14T06:55:35;94837.31;;;9.45;100.00
6829;BME280;17930;48.592;8.868;2023-03-14T06:58:03;94833.16;;;9.53;100.00
6829;BME280;17930;48.592;8.868;2023-03-14T07:00:32;94842.81;;;9.52;100.00
6829;BME280;17930;48.592;8.868;2023-03-14T07:02:58;94835.75;;;9.53;100.00
6829;BME280;17930;48.592;8.868;2023-03-14T07:05:25;94851.97;;;9.58;100.00
6829;BME280;17930;48.592;8.868;2023-03-14T07:07:52;94836.19;;;9.63;100.00
6829;BME280;17930;48.592;8.868;2023-03-14T07:10:19;94837.56;;;9.69;100.00
6829;BME280;17930;48.592;8.868;2023-03-14T07:12:45;94844.72;;;9.72;100.00
6829;BME280;17930;48.592;8.868;2023-03-14T07:15:13;94846.31;;;10.02;100.00
6829;BME280;17930;48.592;8.868;2023-03-14T07:17:40;94849.69;;;10.22;100.00
6829;BME280;17930;48.592;8.868;2023-03-14T07:20:08;94845.47;;;10.10;100.00
6829;BME280;17930;48.592;8.868;2023-03-14T07:22:35;94849.97;;;10.01;100.00
6829;BME280;17930;48.592;8.868;2023-03-14T07:25:02;94850.75;;;9.93;100.00
6829;BME280;17930;48.592;8.868;2023-03-14T07:27:29;94857.03;;;10.00;100.00
6829;BME280;17930;48.592;8.868;2023-03-14T07:29:55;94845.59;;;10.22;100.00
6829;BME280;17930;48.592;8.868;2023-03-14T07:32:23;94841.66;;;10.16;100.00
6829;BME280;17930;48.592;8.868;2023-03-14T07:34:50;94849.69;;;10.22;100.00
6829;BME280;17930;48.592;8.868;2023-03-14T07:37:16;94865.69;;;10.41;100.00
6829;BME280;17930;48.592;8.868;2023-03-14T07:39:43;94882.59;;;10.35;100.00
6829;BME280;17930;48.592;8.868;2023-03-14T07:42:09;94873.56;;;10.82;100.00
6829;BME280;17930;48.592;8.868;2023-03-14T07:44:36;94872.13;;;11.05;100.00
6829;BME280;17930;48.592;8.868;2023-03-14T07:47:03;94884.84;;;10.86;100.00
6829;BME280;17930;48.592;8.868;2023-03-14T07:49:31;94884.28;;;11.01;100.00
6829;BME280;17930;48.592;8.868;2023-03-14T07:51:58;94891.59;;;11.39;100.00
6829;BME280;17930;48.592;8.868;2023-03-14T07:54:24;94886.84;;;11.41;100.00
6829;BME280;17930;48.592;8.868;2023-03-14T07:56:51;94901.41;;;11.42;100.00
6829;BME280;17930;48.592;8.868;2023-03-14T07:59:18;94908.78;;;11.40;100.00
6829;BME280;17930;48.592;8.868;2023-03-14T08:01:45;94907.00;;;11.32;100.00
6829;BME280;17930;48.592;8.868;2023-03-14T08:04:12;94903.97;;;11.30;100.00
6829;BME280;17930;48.592;8.868;2023-03-14T08:06:40;94911.81;;;11.30;100.00
6829;BME280;17930;48.592;8.868;2023-03-14T08:09:06;94901.53;;;11.46;100.00
6829;BME280;17930;48.592;8.868;2023-03-14T08:11:34;94897.72;;;11.43;100.00
6829;BME280;17930;48.592;8.868;2023-03-14T08:14:00;94914.41;;;11.51;100.00
6829;BME280;17930;48.592;8.868;2023-03-14T08:16:27;94913.03;;;11.33;100.00
6829;BME280;17930;48.592;8.868;2023-03-14T08:18:54;94920.97;;;11.36;100.00
6829;BME280;17930;48.592;8.868;2023-03-14T08:21:21;94925.59;;;11.31;100.00
6829;BME280;17930;48.592;8.868;2023-03-14T08:23:49;94927.47;;;11.30;100.00
6829;BME280;17930;48.592;8.868;2023-03-14T08:26:16;94917.91;;;11.34;100.00
6829;BME280;17930;48.592;8.868;2023-03-14T08:28:42;94932.06;;;11.45;100.00
6829;BME280;17930;48.592;8.868;2023-03-14T08:31:09;94935.47;;;11.25;100.00
6829;BME280;17930;48.592;8.868;2023-03-14T08:33:36;94939.31;;;11.08;100.00
6829;BME280;17930;48.592;8.868;2023-03-14T08:36:04;94934.81;;;10.68;100.00
6829;BME280;17930;48.592;8.868;2023-03-14T08:38:30;94942.84;;;10.63;100.00
6829;BME280;17930;48.592;8.868;2023-03-14T08:41:00;94946.84;;;10.60;100.00
6829;BME280;17930;48.592;8.868;2023-03-14T08:43:27;94947.06;;;10.47;100.00
6829;BME280;17930;48.592;8.868;2023-03-14T08:45:57;94941.28;;;10.41;100.00
6829;BME280;17930;48.592;8.868;2023-03-14T08:48:24;94936.50;;;10.43;100.00
6829;BME280;17930;48.592;8.868;2023-03-14T08:50:51;94938.94;;;10.48;100.00
6829;BME280;17930;48.592;8.868;2023-03-14T08:53:18;94949.91;;;10.62;100.00
6829;BME280;17930;48.592;8.868;2023-03-14T08:55:46;94938.75;;;10.82;100.00
6829;BME280;17930;48.592;8.868;2023-03-14T08:58:14;94940.88;;;10.80;100.00
6829;BME280;17930;48.592;8.868;2023-03-14T09:00:43;94933.13;;;10.72;100.00
6829;BME280;17930;48.592;8.868;2023-03-14T09:03:10;94931.72;;;10.74;100.00
6829;BME280;17930;48.592;8.868;2023-03-14T09:05:37;94944.41;;;10.84;100.00
6829;BME280;17930;48.592;8.868;2023-03-14T09:08:04;94935.28;;;10.90;100.00
6829;BME280;17930;48.592;8.868;2023-03-14T09:10:30;94940.06;;;11.08;100.00
6829;BME280;17930;48.592;8.868;2023-03-14T09:12:57;94942.38;;;11.10;100.00
6829;BME280;17930;48.592;8.868;2023-03-14T09:15:25;94947.59;;;11.10;100.00
6829;BME280;17930;48.592;8.868;2023-03-14T09:17:52;94949.06;;;11.19;100.00
6829;BME280;17930;48.592;8.868;2023-03-14T09:20:19;94965.22;;;11.33;100.00
6829;BME280;17930;48.592;8.868;2023-03-14T09:22:47;94952.53;;;11.43;100.00
6829;BME280;17930;48.592;8.868;2023-03-14T09:25:14;94951.19;;;11.37;100.00
6829;BME280;17930;48.592;8.868;2023-03-14T09:27:41;94965.69;;;11.47;100.00
6829;BME280;17930;48.592;8.868;2023-03-14T09:30:09;94957.44;;;11.45;100.00
6829;BME280;17930;48.592;8.868;2023-03-14T09:32:37;94971.81;;;11.71;100.00
6829;BME280;17930;48.592;8.868;2023-03-14T09:35:05;94956.41;;;11.78;100.00
6829;BME280;17930;48.592;8.868;2023-03-14T09:37:31;94963.03;;;11.76;100.00
6829;BME280;17930;48.592;8.868;2023-03-14T09:39:58;94968.88;;;11.73;100.00
6829;BME280;17930;48.592;8.868;2023-03-14T09:42:26;94966.38;;;11.76;100.00
6829;BME280;17930;48.592;8.868;2023-03-14T09:44:57;94958.28;;;12.13;100.00
6829;BME280;17930;48.592;8.868;2023-03-14T09:47:26;94957.66;;;12.40;100.00
6829;BME280;17930;48.592;8.868;2023-03-14T09:49:55;94955.84;;;12.40;100.00
6829;BME280;17930;48.592;8.868;2023-03-14T09:52:25;94944.25;;;13.13;100.00
6829;BME280;17930;48.592;8.868;2023-03-14T09:54:54;94939.81;;;13.40;100.00
6829;BME280;17930;48.592;8.868;2023-03-14T09:57:24;94950.34;;;14.75;100.00
6829;BME280;17930;48.592;8.868;2023-03-14T09:59:53;94948.53;;;14.94;100.00
6829;BME280;17930;48.592;8.868;2023-03-14T10:02:22;94944.16;;;14.83;100.00
6829;BME280;17930;48.592;8.868;2023-03-14T10:04:51;94944.88;;;14.19;100.00
6829;BME280;17930;48.592;8.868;2023-03-14T10:07:25;94945.69;;;14.53;100.00
6829;BME280;17930;48.592;8.868;2023-03-14T10:09:55;94958.38;;;14.82;100.00
6829;BME280;17930;48.592;8.868;2023-03-14T10:12:30;94950.78;;;13.73;100.00
6829;BME280;17930;48.592;8.868;2023-03-14T10:15:02;94955.97;;;13.31;100.00
6829;BME280;17930;48.592;8.868;2023-03-14T10:17:29;94957.31;;;13.13;100.00
6829;BME280;17930;48.592;8.868;2023-03-14T10:19:59;94950.63;;;13.54;100.00
6829;BME280;17930;48.592;8.868;2023-03-14T10:22:30;94946.56;;;13.69;100.00
6829;BME280;17930;48.592;8.868;2023-03-14T10:25:00;94956.63;;;14.09;100.00
6829;BME280;17930;48.592;8.868;2023-03-14T10:27:29;94966.16;;;14.94;100.00
6829;BME280;17930;48.592;8.868;2023-03-14T10:29:58;94954.75;;;15.21;100.00
6829;BME280;17930;48.592;8.868;2023-03-14T10:32:31;94957.91;;;14.61;100.00
6829;BME280;17930;48.592;8.868;2023-03-14T10:35:17;94954.50;;;14.15;100.00
6829;BME280;17930;48.592;8.868;2023-03-14T10:37:52;94959.34;;;13.85;100.00
6829;BME280;17930;48.592;8.868;2023-03-14T10:40:26;94979.13;;;13.56;100.00
6829;BME280;17930;48.592;8.868;2023-03-14T10:42:54;94982.22;;;13.07;100.00
6829;BME280;17930;48.592;8.868;2023-03-14T10:45:29;94975.66;;;13.13;100.00
6829;BME280;17930;48.592;8.868;2023-03-14T10:47:59;94992.66;;;12.71;100.00
6829;BME280;17930;48.592;8.868;2023-03-14T10:50:28;94986.75;;;12.38;100.00
6829;BME280;17930;48.592;8.868;2023-03-14T10:52:57;94985.44;;;12.32;100.00
6829;BME280;17930;48.592;8.868;2023-03-14T10:55:40;94991.53;;;12.25;100.00
6829;BME280;17930;48.592;8.868;2023-03-14T10:58:21;95003.88;;;11.92;100.00
6829;BME280;17930;48.592;8.868;2023-03-14T11:00:53;94996.00;;;11.80;100.00
6829;BME280;17930;48.592;8.868;2023-03-14T11:03:37;95012.66;;;11.87;100.00
6829;BME280;17930;48.592;8.868;2023-03-14T11:06:13;95009.56;;;12.06;100.00
6829;BME280;17930;48.592;8.868;2023-03-14T11:08:47;95016.09;;;12.00;100.00
6829;BME280;17930;48.592;8.868;2023-03-14T11:11:22;95024.38;;;12.02;100.00
6829;BME280;17930;48.592;8.868;2023-03-14T11:14:01;95023.56;;;11.57;100.00
6829;BME280;17930;48.592;8.868;2023-03-14T11:16:34;95034.31;;;11.07;100.00
6829;BME280;17930;48.592;8.868;2023-03-14T11:19:17;95029.16;;;10.70;100.00
6829;BME280;17930;48.592;8.868;2023-03-14T11:21:53;95037.63;;;10.58;100.00
6829;BME280;17930;48.592;8.868;2023-03-14T11:27:22;95035.19;;;10.53;100.00
6829;BME280;17930;48.592;8.868;2023-03-14T11:29:55;95046.41;;;10.54;100.00
6829;BME280;17930;48.592;8.868;2023-03-14T11:32:36;95040.63;;;10.77;100.00
6829;BME280;17930;48.592;8.868;2023-03-14T11:35:15;95041.28;;;10.94;100.00
6829;BME280;17930;48.592;8.868;2023-03-14T11:37:46;95053.75;;;11.18;100.00
6829;BME280;17930;48.592;8.868;2023-03-14T11:40:16;95046.81;;;11.22;100.00
6829;BME280;17930;48.592;8.868;2023-03-14T11:42:48;95057.63;;;11.12;100.00
6829;BME280;17930;48.592;8.868;2023-03-14T11:45:19;95057.72;;;10.95;100.00
6829;BME280;17930;48.592;8.868;2023-03-14T11:47:53;95069.47;;;10.72;100.00
6829;BME280;17930;48.592;8.868;2023-03-14T11:50:24;95072.84;;;10.27;100.00
6829;BME280;17930;48.592;8.868;2023-03-14T11:52:54;95081.00;;;10.09;100.00
6829;BME280;17930;48.592;8.868;2023-03-14T11:55:27;95073.66;;;10.02;100.00
6829;BME280;17930;48.592;8.868;2023-03-14T11:58:00;95099.22;;;9.83;100.00
6829;BME280;17930;48.592;8.868;2023-03-14T12:00:28;95115.75;;;9.70;100.00
6829;BME280;17930;48.592;8.868;2023-03-14T12:03:01;95119.75;;;9.85;100.00
6829;BME280;17930;48.592;8.868;2023-03-14T12:05:39;95136.59;;;10.13;100.00
6829;BME280;17930;48.592;8.868;2023-03-14T12:08:25;95125.75;;;10.73;100.00
6829;BME280;17930;48.592;8.868;2023-03-14T12:11:02;95132.25;;;10.96;100.00
6829;BME280;17930;48.592;8.868;2023-03-14T12:13:33;95149.81;;;11.16;100.00
6829;BME280;17930;48.592;8.868;2023-03-14T12:16:05;95150.84;;;11.31;100.00
6829;BME280;17930;48.592;8.868;2023-03-14T12:18:35;95149.78;;;11.61;100.00
6829;BME280;17930;48.592;8.868;2023-03-14T12:21:06;95154.88;;;11.58;100.00
6829;BME280;17930;48.592;8.868;2023-03-14T12:23:36;95153.44;;;13.06;100.00
6829;BME280;17930;48.592;8.868;2023-03-14T12:26:13;95144.38;;;14.26;100.00
6829;BME280;17930;48.592;8.868;2023-03-14T12:28:43;95150.22;;;14.89;100.00
6829;BME280;17930;48.592;8.868;2023-03-14T12:31:36;95153.72;;;14.38;100.00
6829;BME280;17930;48.592;8.868;2023-03-14T12:34:03;95172.22;;;13.43;100.00
6829;BME280;17930;48.592;8.868;2023-03-14T12:36:56;95180.94;;;13.24;100.00
6829;BME280;17930;48.592;8.868;2023-03-14T12:39:33;95194.56;;;13.05;100.00
6829;BME280;17930;48.592;8.868;2023-03-14T12:42:07;95209.91;;;12.42;100.00
6829;BME280;17930;48.592;8.868;2023-03-14T12:44:40;95226.47;;;12.06;100.00
6829;BME280;17930;48.592;8.868;2023-03-14T12:47:41;95229.97;;;12.30;100.00
6829;BME280;17930;48.592;8.868;2023-03-14T12:50:15;95242.09;;;11.57;100.00
6829;BME280;17930;48.592;8.868;2023-03-14T12:52:57;95255.84;;;11.28;100.00
6829;BME280;17930;48.592;8.868;2023-03-14T12:55:33;95265.00;;;10.80;100.00
6829;BME280;17930;48.592;8.868;2023-03-14T12:58:08;95286.31;;;11.08;100.00
6829;BME280;17930;48.592;8.868;2023-03-14T13:00:39;95305.06;;;10.51;100.00
6829;BME280;17930;48.592;8.868;2023-03-14T13:03:18;95325.91;;;10.25;100.00
6829;BME280;17930;48.592;8.868;2023-03-14T13:05:55;95317.81;;;10.44;100.00
6829;BME280;17930;48.592;8.868;2023-03-14T13:08:35;95336.50;;;10.54;100.00
6829;BME280;17930;48.592;8.868;2023-03-14T13:11:05;95340.66;;;10.72;100.00
6829;BME280;17930;48.592;8.868;2023-03-14T13:13:37;95357.69;;;10.61;100.00
6829;BME280;17930;48.592;8.868;2023-03-14T13:16:14;95348.31;;;10.94;100.00
6829;BME280;17930;48.592;8.868;2023-03-14T13:18:43;95369.56;;;10.20;100.00